Time;durP1;ratioP1;P1;durP2;ratioP2;P2;SDS_P1;SDS_P2;PMS_P1;PMS_P2;Temp;Humidity;BMP_temperature;BMP_pressure;BME280_temperature;BME280_humidity;BME280_pressure;Samples;Min_cycle;Max_cycle;Signal;HPM_P1;HPM_P2
2023/01/16 00:01:03;;;;;;;4.38;1.40;;;;;;;6.17;64.82;99394.44;4163885;28;20132;-69
2023/01/16 00:03:06;;;;;;;3.47;1.40;;;;;;;6.11;64.84;99386.59;4161113;28;20048;-68
2023/01/16 00:05:09;;;;;;;4.53;1.35;;;;;;;6.10;65.29;99377.13;4162363;28;20051;-69
2023/01/16 00:07:13;;;;;;;5.53;1.33;;;;;;;6.11;65.24;99381.44;4162123;28;20048;-68
2023/01/16 00:09:16;;;;;;;4.65;1.75;;;;;;;6.11;65.39;99379.72;4161660;28;20038;-68
2023/01/16 00:11:18;;;;;;;3.75;1.55;;;;;;;6.07;65.70;99371.91;4161847;28;20052;-69
2023/01/16 00:13:21;;;;;;;3.90;1.73;;;;;;;5.98;65.74;99364.06;4161407;28;20415;-68
2023/01/16 00:15:24;;;;;;;3.50;1.23;;;;;;;6.08;64.82;99368.50;4162428;28;20038;-68
2023/01/16 00:17:27;;;;;;;6.78;1.67;;;;;;;6.06;64.24;99357.28;4161699;28;20072;-68
2023/01/16 00:19:30;;;;;;;6.75;1.42;;;;;;;5.94;64.77;99358.81;4161753;28;20071;-68
2023/01/16 00:21:33;;;;;;;5.95;1.40;;;;;;;5.91;65.38;99360.47;4160823;28;20042;-68
2023/01/16 00:23:37;;;;;;;5.07;1.50;;;;;;;5.90;65.69;99362.19;4161563;28;20045;-68
2023/01/16 00:25:41;;;;;;;;;;;;;;;5.90;66.08;99359.59;4161619;28;20092;-67
2023/01/16 00:27:44;;;;;;;4.90;1.10;;;;;;;5.88;65.78;99343.22;4161051;28;19921;-68
2023/01/16 00:29:46;;;;;;;5.90;1.45;;;;;;;5.89;65.75;99344.97;4162223;28;20038;-68
2023/01/16 00:31:49;;;;;;;4.80;1.70;;;;;;;5.87;65.63;99341.50;4162774;28;20111;-68
2023/01/16 00:33:52;;;;;;;7.47;1.90;;;;;;;5.91;65.79;99343.31;4158342;28;20053;-68
2023/01/16 00:35:55;;;;;;;1.67;1.15;;;;;;;5.79;66.30;99332.78;4161944;28;20128;-67
2023/01/16 00:37:58;;;;;;;4.50;1.48;;;;;;;5.80;66.14;99329.38;4162002;28;20045;-68
2023/01/16 00:40:02;;;;;;;8.70;1.30;;;;;;;5.78;66.32;99331.03;4159830;28;20088;-68
2023/01/16 00:42:05;;;;;;;4.40;1.85;;;;;;;5.87;65.77;99323.47;4158646;28;20033;-68
2023/01/16 00:44:08;;;;;;;3.15;1.15;;;;;;;5.81;65.83;99317.31;4159447;28;20046;-67
2023/01/16 00:46:11;;;;;;;4.28;1.20;;;;;;;5.76;66.24;99317.25;4161366;28;20033;-68
2023/01/16 00:48:14;;;;;;;4.65;1.48;;;;;;;5.74;66.07;99299.19;4176626;28;20083;-67
2023/01/16 00:50:17;;;;;;;4.00;1.25;;;;;;;5.77;66.14;99303.53;4160035;28;20041;-68
2023/01/16 00:52:20;;;;;;;4.88;1.63;;;;;;;5.71;66.31;99298.25;4160315;28;20034;-69
2023/01/16 00:54:23;;;;;;;7.60;1.98;;;;;;;5.69;66.15;99292.22;4160556;28;20515;-69
2023/01/16 00:56:27;;;;;;;5.20;1.73;;;;;;;5.65;66.08;99286.19;4161202;28;20293;-69
2023/01/16 00:58:31;;;;;;;4.47;1.45;;;;;;;5.64;66.16;99287.00;4161418;28;20041;-68
2023/01/16 01:00:34;;;;;;;4.28;1.60;;;;;;;5.73;66.10;99286.28;4160572;28;20049;-69
2023/01/16 01:02:37;;;;;;;6.50;1.50;;;;;;;5.68;66.10;99278.47;4162262;28;20365;-69
2023/01/16 01:04:40;;;;;;;4.05;1.30;;;;;;;5.74;65.85;99275.13;4161499;28;20037;-69
2023/01/16 01:06:43;;;;;;;3.95;1.45;;;;;;;5.78;65.30;99271.72;4161238;28;20083;-68
2023/01/16 01:08:46;;;;;;;8.15;1.90;;;;;;;5.65;65.67;99260.38;4174438;28;20056;-69
2023/01/16 01:10:49;;;;;;;5.78;1.77;;;;;;;5.62;65.82;99265.47;4156146;28;20041;-69
2023/01/16 01:12:55;;;;;;;6.85;1.60;;;;;;;5.64;65.86;99257.78;4161039;28;20439;-69
2023/01/16 01:14:58;;;;;;;5.88;1.40;;;;;;;5.58;66.07;99256.84;4160591;28;20052;-69
2023/01/16 01:17:01;;;;;;;8.50;1.65;;;;;;;5.54;66.15;99259.34;4160764;28;20087;-69
2023/01/16 01:19:04;;;;;;;5.05;1.70;;;;;;;5.55;65.73;99256.81;4162221;28;20033;-69
2023/01/16 01:21:07;;;;;;;7.43;1.70;;;;;;;5.60;65.66;99243.97;4160308;28;20399;-69
2023/01/16 01:23:10;;;;;;;6.22;1.50;;;;;;;5.58;65.58;99246.53;4160522;28;20068;-68
2023/01/16 01:25:13;;;;;;;6.32;1.55;;;;;;;5.49;65.64;99246.41;4159894;28;20044;-68
2023/01/16 01:27:16;;;;;;;4.18;1.40;;;;;;;5.46;66.22;99237.75;4161391;28;20042;-68
2023/01/16 01:29:20;;;;;;;4.43;1.80;;;;;;;5.52;65.91;99235.25;4161128;28;20033;-68
2023/01/16 01:31:23;;;;;;;10.48;1.58;;;;;;;5.41;66.12;99246.25;4163268;28;20065;-69
2023/01/16 01:33:26;;;;;;;4.10;1.20;;;;;;;5.42;65.70;99245.44;4164915;28;20041;-68
2023/01/16 01:35:29;;;;;;;5.25;1.45;;;;;;;5.46;66.11;99233.47;4164320;28;20037;-68
2023/01/16 01:37:31;;;;;;;4.07;1.30;;;;;;;5.41;66.00;99224.78;4164802;28;20095;-68
2023/01/16 01:39:35;;;;;;;6.18;1.70;;;;;;;5.42;65.85;99227.38;4165251;28;20446;-68
2023/01/16 01:41:38;;;;;;;4.60;1.65;;;;;;;5.49;66.16;99209.44;4165245;28;20076;-68
2023/01/16 01:43:44;;;;;;;3.72;1.48;;;;;;;5.56;65.71;99200.94;4164112;28;20233;-68
2023/01/16 01:45:52;;;;;;;2.95;1.33;;;;;;;5.55;65.44;99194.94;4164165;28;20499;-69
2023/01/16 01:48:01;;;;;;;2.97;1.20;;;;;;;5.50;65.61;99196.56;4157661;28;20407;-68
2023/01/16 01:50:14;;;;;;;5.65;1.40;;;;;;;5.59;65.15;99188.97;4163396;28;20541;-68
2023/01/16 01:52:19;;;;;;;8.25;1.70;;;;;;;5.43;65.93;99184.44;4162466;28;20580;-68
2023/01/16 01:54:25;;;;;;;8.48;2.05;;;;;;;5.42;66.09;99182.72;4164590;28;20091;-68
2023/01/16 01:56:33;;;;;;;4.15;1.17;;;;;;;5.43;66.13;99179.28;4164091;28;20470;-68
2023/01/16 01:58:36;;;;;;;3.53;1.00;;;;;;;5.47;65.93;99181.06;4165461;28;20037;-68
2023/01/16 02:00:52;;;;;;;6.95;1.45;;;;;;;5.49;65.46;99169.06;4179031;28;20402;-68
2023/01/16 02:03:03;;;;;;;2.22;1.10;;;;;;;5.46;65.66;99169.03;4161600;28;20427;-68
2023/01/16 02:05:09;;;;;;;4.15;1.40;;;;;;;5.45;66.06;99164.72;4162717;28;20041;-68
2023/01/16 02:07:16;;;;;;;3.38;1.10;;;;;;;5.47;65.55;99164.75;4163235;28;20045;-68
2023/01/16 02:09:20;;;;;;;4.68;1.67;;;;;;;5.37;66.11;99163.72;4164553;28;20037;-68
2023/01/16 02:11:32;;;;;;;6.22;1.55;;;;;;;5.35;66.16;99161.13;4163840;28;20515;-69
2023/01/16 02:13:37;;;;;;;6.70;1.50;;;;;;;5.39;66.48;99162.06;4178717;28;20352;-68
2023/01/16 02:19:14;;;;;;;7.25;1.52;;;;;;;5.47;66.20;99154.44;4164522;28;20529;-68
2023/01/16 02:20:33;;;;;;;8.35;1.60;;;;;;;5.52;66.14;99148.50;4163293;28;21625;-69
2023/01/16 02:23:04;;;;;;;3.13;1.10;;;;;;;5.51;65.70;99143.31;4163099;28;20034;-69
2023/01/16 02:25:52;;;;;;;3.42;1.23;;;;;;;5.54;66.24;99126.16;4157253;28;20541;-68
2023/01/16 02:28:23;;;;;;;4.38;1.20;;;;;;;5.55;65.51;99122.75;4117792;28;20053;-68
2023/01/16 02:30:55;;;;;;;4.97;2.13;;;;;;;5.45;65.86;99113.16;4165066;28;20068;-68
2023/01/16 02:33:05;;;;;;;3.90;1.40;;;;;;;5.42;65.97;99103.69;4158613;28;20103;-69
2023/01/16 02:35:27;;;;;;;4.47;1.55;;;;;;;5.52;65.83;99103.78;4163768;28;20045;-69
2023/01/16 02:37:41;;;;;;;6.35;1.50;;;;;;;5.45;65.74;99089.09;4164390;28;20045;-68
2023/01/16 02:39:50;;;;;;;7.22;1.50;;;;;;;5.38;65.66;99077.84;4163756;28;20156;-68
2023/01/16 02:42:04;;;;;;;5.22;1.40;;;;;;;5.38;65.84;99073.56;4158213;28;20128;-67
2023/01/16 02:44:15;;;;;;;3.45;1.20;;;;;;;5.35;65.90;99068.38;4156564;28;20404;-68
2023/01/16 02:46:31;;;;;;;5.57;1.67;;;;;;;5.40;65.59;99052.94;4163982;28;20045;-68
2023/01/16 02:48:40;;;;;;;5.85;1.45;;;;;;;5.38;65.63;99052.09;4164320;28;20055;-68
2023/01/16 02:50:53;;;;;;;4.75;1.35;;;;;;;5.37;65.51;99042.59;4162849;28;20053;-68
2023/01/16 02:53:02;;;;;;;2.72;1.33;;;;;;;5.37;65.92;99040.03;4160919;28;20041;-68
2023/01/16 02:55:11;;;;;;;4.90;1.90;;;;;;;5.44;65.74;99039.25;4163623;28;20037;-68
2023/01/16 02:57:18;;;;;;;3.70;1.83;;;;;;;5.43;65.66;99024.63;4163095;28;20033;-68
2023/01/16 02:59:24;;;;;;;4.97;1.48;;;;;;;5.48;65.56;99027.28;4163176;28;20477;-68
2023/01/16 03:01:28;;;;;;;5.55;1.55;;;;;;;5.49;65.41;99022.16;4162135;28;20053;-68
2023/01/16 03:03:42;;;;;;;6.20;1.58;;;;;;;5.54;64.97;99017.91;4177426;28;20045;-68
2023/01/16 03:05:49;;;;;;;4.10;1.45;;;;;;;5.46;64.79;99010.94;4159749;28;20038;-68
2023/01/16 03:08:20;;;;;;;3.72;1.17;;;;;;;5.39;65.13;98999.72;4161129;28;20087;-68
2023/01/16 03:10:36;;;;;;;4.50;1.33;;;;;;;5.41;65.35;98987.69;4163918;28;20041;-68
2023/01/16 03:12:52;;;;;;;6.30;1.65;;;;;;;5.45;65.75;98973.09;4162946;28;20038;-68
2023/01/16 03:15:04;;;;;;;4.82;1.33;;;;;;;5.50;65.61;98974.88;4160777;28;20044;-69
2023/01/16 03:17:22;;;;;;;3.80;1.70;;;;;;;5.55;65.29;98973.25;4162545;28;20045;-68
2023/01/16 03:19:33;;;;;;;10.20;1.70;;;;;;;5.61;65.32;98959.56;4164423;28;20065;-68
2023/01/16 03:21:49;;;;;;;3.80;1.42;;;;;;;5.60;65.34;98950.94;4163088;28;20038;-68
2023/01/16 03:23:54;;;;;;;4.45;1.38;;;;;;;5.67;65.12;98938.97;4162117;28;20061;-68
2023/01/16 03:26:02;;;;;;;6.80;1.50;;;;;;;5.62;65.40;98943.22;4158176;28;20504;-68
2023/01/16 03:28:13;;;;;;;4.15;1.50;;;;;;;5.62;65.18;98927.75;4162572;28;20057;-68
2023/01/16 03:30:26;;;;;;;5.07;1.40;;;;;;;5.65;65.44;98925.22;4178069;28;20124;-68
2023/01/16 03:32:35;;;;;;;5.00;1.13;;;;;;;5.63;65.02;98924.31;4161387;28;20048;-69
2023/01/16 03:34:43;;;;;;;4.13;1.13;;;;;;;5.56;65.15;98900.22;4160746;28;20040;-68
2023/01/16 03:36:52;;;;;;;4.55;1.48;;;;;;;5.53;65.07;98912.22;4163050;28;20095;-69
2023/01/16 03:38:58;;;;;;;2.85;1.15;;;;;;;5.56;64.83;98907.06;4164058;28;20044;-68
2023/01/16 03:41:04;;;;;;;4.35;1.40;;;;;;;5.53;65.05;98905.31;4161809;28;20818;-68
2023/01/16 03:43:13;;;;;;;4.25;1.35;;;;;;;5.49;64.99;98900.13;4161212;28;20530;-68
2023/01/16 03:45:21;;;;;;;4.22;1.55;;;;;;;5.49;65.55;98897.56;4161408;28;20109;-68
2023/01/16 03:47:31;;;;;;;3.78;1.27;;;;;;;5.47;65.45;98897.53;4162648;28;20041;-69
2023/01/16 03:49:41;;;;;;;6.72;1.45;;;;;;;5.51;65.88;98885.56;4160656;28;20073;-68
2023/01/16 03:51:48;;;;;;;5.35;1.63;;;;;;;5.46;66.02;98885.53;4162442;28;20037;-69
2023/01/16 03:54:00;;;;;;;6.22;1.73;;;;;;;5.57;65.13;98877.88;4160329;28;20411;-68
2023/01/16 03:56:12;;;;;;;8.70;1.33;;;;;;;5.55;65.36;98867.56;4160847;28;20570;-68
2023/01/16 03:58:30;;;;;;;6.75;1.25;;;;;;;5.45;65.31;98862.28;4161974;28;20037;-68
2023/01/16 04:00:40;;;;;;;6.07;1.20;;;;;;;5.44;65.08;98860.59;4162703;28;20396;-68
2023/01/16 04:02:49;;;;;;;6.43;1.50;;;;;;;5.42;65.14;98852.84;4159901;28;20071;-68
2023/01/16 04:04:59;;;;;;;4.63;1.80;;;;;;;5.43;65.16;98836.50;4161663;28;20553;-68
2023/01/16 04:07:07;;;;;;;5.85;1.10;;;;;;;5.35;65.65;98833.00;4163464;28;20557;-68
2023/01/16 04:09:15;;;;;;;3.05;1.10;;;;;;;5.37;65.68;98832.19;4163019;28;20045;-69
2023/01/16 04:11:21;;;;;;;7.35;1.88;;;;;;;5.37;64.83;98833.88;4161776;28;20060;-68
2023/01/16 04:13:28;;;;;;;5.22;0.90;;;;;;;5.45;64.64;98826.22;4160579;28;20132;-69
2023/01/16 04:15:34;;;;;;;5.32;1.20;;;;;;;5.37;64.91;98826.16;4160955;28;20057;-69
2023/01/16 04:17:40;;;;;;;5.97;1.52;;;;;;;5.40;64.84;98813.28;4161706;28;20041;-69
2023/01/16 04:19:44;;;;;;;3.10;1.00;;;;;;;5.36;64.78;98804.69;4161739;28;20560;-68
2023/01/16 04:21:48;;;;;;;8.30;1.30;;;;;;;5.37;65.07;98802.97;4162604;28;20442;-68
2023/01/16 04:23:53;;;;;;;3.03;0.90;;;;;;;5.33;65.51;98790.91;4157809;28;20467;-68
2023/01/16 04:25:55;;;;;;;5.45;1.20;;;;;;;5.36;65.56;98784.06;4162501;28;21312;-68
2023/01/16 04:27:58;;;;;;;4.05;1.10;;;;;;;5.40;64.83;98788.41;4162498;28;20120;-68
2023/01/16 04:30:02;;;;;;;6.95;1.40;;;;;;;5.41;65.22;98776.38;4162694;28;20137;-68
2023/01/16 04:32:05;;;;;;;4.82;1.35;;;;;;;5.33;65.10;98778.91;4163215;28;20033;-68
2023/01/16 04:34:08;;;;;;;3.70;1.10;;;;;;;5.30;65.26;98770.25;4161493;28;20056;-68
2023/01/16 04:36:10;;;;;;;6.35;1.50;;;;;;;5.39;64.99;98766.06;4175337;28;20502;-68
2023/01/16 04:38:16;;;;;;;4.82;1.55;;;;;;;5.36;65.36;98760.00;4160408;28;20037;-68
2023/01/16 04:40:19;;;;;;;3.85;1.45;;;;;;;5.30;65.52;98762.53;4159291;28;20411;-68
2023/01/16 04:42:22;;;;;;;4.95;2.00;;;;;;;5.21;65.13;98760.75;4160188;28;20048;-69
2023/01/16 04:44:25;;;;;;;8.23;1.60;;;;;;;5.23;65.68;98747.03;4158911;28;20034;-68
2023/01/16 04:46:28;;;;;;;5.50;1.35;;;;;;;5.25;65.71;98737.59;4161029;28;20033;-68
2023/01/16 04:48:31;;;;;;;5.53;1.50;;;;;;;5.32;65.74;98724.78;4173765;28;20411;-68
2023/01/16 04:50:34;;;;;;;4.40;1.40;;;;;;;5.31;65.64;98725.63;4159755;28;20037;-68
2023/01/16 04:52:37;;;;;;;6.10;1.50;;;;;;;5.38;65.55;98722.25;4159214;28;20072;-68
2023/01/16 04:54:41;;;;;;;2.97;1.08;;;;;;;5.41;65.55;98720.53;4160457;28;20041;-68
2023/01/16 04:56:44;;;;;;;4.85;1.48;;;;;;;5.44;65.14;98705.97;4160675;28;20064;-68
2023/01/16 04:58:47;;;;;;;6.20;1.27;;;;;;;5.50;64.75;98693.94;4161439;28;20452;-68
2023/01/16 05:00:50;;;;;;;2.72;1.13;;;;;;;5.50;64.94;98691.38;4158276;28;20480;-69
2023/01/16 05:02:53;;;;;;;3.22;1.20;;;;;;;5.51;65.15;98685.38;4160822;28;20045;-69
2023/01/16 05:04:56;;;;;;;6.10;0.90;;;;;;;5.48;65.40;98676.78;4159596;28;20072;-69
2023/01/16 05:06:59;;;;;;;3.50;1.13;;;;;;;5.52;65.35;98671.66;4161052;28;20048;-69
2023/01/16 05:09:05;;;;;;;2.95;1.00;;;;;;;5.44;64.96;98663.00;4159833;28;20079;-69
2023/01/16 05:11:09;;;;;;;3.80;1.10;;;;;;;5.50;65.16;98649.28;4162001;28;20045;-69
2023/01/16 05:13:12;;;;;;;3.60;1.45;;;;;;;5.51;64.72;98644.13;4157957;28;20045;-69
2023/01/16 05:15:15;;;;;;;2.80;1.02;;;;;;;5.50;64.82;98642.41;4175414;28;20119;-69
2023/01/16 05:17:22;;;;;;;3.80;1.15;;;;;;;5.54;64.38;98630.41;4160652;28;20041;-69
2023/01/16 05:19:25;;;;;;;4.38;1.20;;;;;;;5.48;64.55;98626.09;4161141;28;20044;-69
2023/01/16 05:21:28;;;;;;;4.30;1.27;;;;;;;5.47;64.66;98619.19;4176010;28;20100;-69
2023/01/16 05:23:32;;;;;;;9.13;1.63;;;;;;;5.51;66.19;98605.47;4157878;28;20034;-66
2023/01/16 05:25:35;;;;;;;4.13;1.50;;;;;;;6.00;71.51;98598.81;4153352;28;20042;-67
2023/01/16 05:27:39;;;;;;;8.15;1.00;;;;;;;6.23;67.83;98589.38;4158315;28;20401;-70
2023/01/16 05:29:42;;;;;;;1.90;1.02;;;;;;;6.16;66.38;98592.81;4160604;28;20419;-70
2023/01/16 05:31:45;;;;;;;2.17;1.02;;;;;;;6.05;65.29;98581.63;4159898;28;20033;-70
2023/01/16 05:33:48;;;;;;;5.47;1.45;;;;;;;6.04;64.44;98577.31;4159572;28;20431;-71
2023/01/16 05:35:51;;;;;;;4.82;1.17;;;;;;;5.89;64.98;98568.66;4159515;28;20368;-70
2023/01/16 05:37:54;;;;;;;4.68;1.58;;;;;;;5.81;65.14;98561.75;4160559;28;20036;-70
2023/01/16 05:39:57;;;;;;;2.08;0.70;;;;;;;5.80;64.95;98552.28;4161779;28;20439;-71
2023/01/16 05:42:00;;;;;;;4.05;1.20;;;;;;;5.74;65.25;98554.00;4160559;28;20454;-70
2023/01/16 05:44:04;;;;;;;3.63;1.08;;;;;;;5.75;65.29;98548.00;4161693;28;20033;-70
2023/01/16 05:46:07;;;;;;;4.93;1.15;;;;;;;5.74;65.16;98527.38;4162542;28;20454;-70
2023/01/16 05:48:10;;;;;;;4.63;1.40;;;;;;;5.68;65.21;98535.06;4160648;28;20041;-70
2023/01/16 05:50:13;;;;;;;2.45;1.00;;;;;;;5.72;65.20;98521.34;4161755;28;20469;-70
2023/01/16 05:52:15;;;;;;;3.72;1.02;;;;;;;5.73;64.56;98512.75;4160276;28;20581;-70
2023/01/16 05:54:18;;;;;;;5.63;1.10;;;;;;;5.67;64.85;98512.75;4160977;28;20041;-71
2023/01/16 05:56:22;;;;;;;2.78;0.90;;;;;;;5.68;64.82;98504.13;4161729;28;20037;-70
2023/01/16 05:58:25;;;;;;;4.57;1.47;;;;;;;5.69;64.97;98500.72;4161895;28;20033;-70
2023/01/16 06:00:29;;;;;;;3.95;1.55;;;;;;;5.69;64.36;98492.97;4162776;28;20320;-70
2023/01/16 06:02:33;;;;;;;3.25;1.10;;;;;;;5.63;64.64;98498.13;4161726;28;20142;-70
2023/01/16 06:04:35;;;;;;;2.78;0.90;;;;;;;5.63;64.19;98491.25;4161020;28;20518;-70
2023/01/16 06:06:38;;;;;;;2.25;1.02;;;;;;;5.73;64.64;98476.66;4158421;28;20060;-71
2023/01/16 06:08:41;;;;;;;2.83;1.60;;;;;;;5.70;64.50;98471.50;4161718;28;20037;-70
2023/01/16 06:10:45;;;;;;;4.75;1.25;;;;;;;5.67;64.83;98468.94;4160345;28;20045;-70
2023/01/16 06:12:48;;;;;;;2.55;1.13;;;;;;;5.66;64.91;98462.03;4161199;28;20047;-70
2023/01/16 06:14:50;;;;;;;2.20;1.00;;;;;;;5.73;64.36;98440.56;4163682;28;20060;-70
2023/01/16 06:16:55;;;;;;;3.38;1.10;;;;;;;5.70;64.62;98443.16;4165470;28;20507;-70
2023/01/16 06:18:57;;;;;;;4.15;1.33;;;;;;;5.70;64.60;98436.25;4163604;28;20037;-71
2023/01/16 06:21:00;;;;;;;2.33;1.00;;;;;;;5.69;64.31;98429.38;4163962;28;20041;-70
2023/01/16 06:23:03;;;;;;;3.33;1.20;;;;;;;5.68;64.44;98419.94;4161336;28;20033;-70
2023/01/16 06:25:07;;;;;;;4.40;1.25;;;;;;;5.66;64.52;98418.22;4163995;28;20042;-70
2023/01/16 06:27:09;;;;;;;4.65;1.52;;;;;;;5.70;64.39;98407.06;4164400;28;20049;-70
2023/01/16 06:29:12;;;;;;;4.97;1.10;;;;;;;5.62;64.44;98404.44;4159010;28;20041;-70
2023/01/16 06:31:15;;;;;;;5.40;1.25;;;;;;;5.65;64.42;98398.44;4164964;28;20491;-70
2023/01/16 06:33:19;;;;;;;2.88;1.10;;;;;;;5.70;64.23;98394.16;4162684;28;20052;-70
2023/01/16 06:35:22;;;;;;;3.30;1.00;;;;;;;5.63;64.21;98395.88;4163063;28;20040;-70
2023/01/16 06:37:25;;;;;;;4.40;1.05;;;;;;;5.70;63.68;98378.69;4164446;28;20041;-70
2023/01/16 06:39:28;;;;;;;7.40;1.38;;;;;;;5.59;63.88;98384.72;4164648;28;20045;-70
2023/01/16 06:41:31;;;;;;;2.35;1.20;;;;;;;5.52;64.05;98375.25;4164299;28;20037;-71
2023/01/16 06:43:34;;;;;;;2.58;1.10;;;;;;;5.54;63.90;98373.53;4162507;28;20454;-70
2023/01/16 06:45:37;;;;;;;3.40;1.02;;;;;;;5.54;63.77;98364.94;4164833;28;20041;-70
2023/01/16 06:47:39;;;;;;;4.55;1.70;;;;;;;5.52;63.94;98359.78;4164942;28;20395;-70
2023/01/16 06:49:44;;;;;;;3.42;1.00;;;;;;;5.53;63.87;98346.03;4163210;28;20477;-70
2023/01/16 06:51:46;;;;;;;4.10;1.17;;;;;;;5.51;63.95;98345.19;4146579;28;20045;-70
2023/01/16 06:53:49;;;;;;;5.88;1.50;;;;;;;5.53;63.92;98337.44;4162880;28;20124;-70
2023/01/16 06:55:52;;;;;;;3.38;1.23;;;;;;;5.53;63.22;98343.44;4163010;28;20037;-70
2023/01/16 06:57:55;;;;;;;4.70;1.20;;;;;;;5.56;63.13;98332.28;4161922;28;20523;-70
2023/01/16 06:59:58;;;;;;;3.22;1.17;;;;;;;5.54;63.32;98319.41;4164460;28;20048;-70
2023/01/16 07:02:00;;;;;;;3.78;1.50;;;;;;;5.60;63.30;98319.41;4164617;28;20045;-70
2023/01/16 07:04:06;;;;;;;4.82;1.40;;;;;;;5.63;63.04;98307.38;4145261;28;20537;-70
2023/01/16 07:06:12;;;;;;;4.88;1.10;;;;;;;5.55;63.45;98310.81;4163412;28;20042;-70
2023/01/16 07:08:15;;;;;;;6.57;1.50;;;;;;;5.62;63.06;98301.34;4161174;28;20048;-70
2023/01/16 07:10:20;;;;;;;3.22;1.10;;;;;;;5.58;62.89;98291.94;4163660;28;20049;-70
2023/01/16 07:12:23;;;;;;;2.85;1.20;;;;;;;5.50;63.55;98285.91;4178802;28;20231;-70
2023/01/16 07:23:58;;;;;;;6.53;1.63;;;;;;;5.40;63.59;98273.03;4146062;28;20038;-70
2023/01/16 07:26:04;;;;;;;5.25;1.70;;;;;;;5.42;63.74;98265.31;4163385;28;20124;-70
2023/01/16 07:28:07;;;;;;;6.70;1.50;;;;;;;5.42;63.53;98255.00;4161531;28;20046;-70
2023/01/16 07:30:11;;;;;;;2.67;1.20;;;;;;;5.50;63.13;98253.25;4163558;28;20040;-70
2023/01/16 07:32:14;;;;;;;3.00;1.40;;;;;;;5.49;62.53;98248.09;4163497;28;20037;-70
2023/01/16 07:34:19;;;;;;;3.03;1.20;;;;;;;5.41;62.89;98250.69;4162625;28;20040;-70
2023/01/16 07:36:21;;;;;;;1.73;1.20;;;;;;;5.44;62.36;98236.97;4163510;28;20491;-70
2023/01/16 07:38:26;;;;;;;7.80;1.73;;;;;;;5.40;63.08;98228.34;4163461;28;20045;-70
2023/01/16 07:40:28;;;;;;;3.05;1.27;;;;;;;5.38;62.84;98219.78;4163700;28;20040;-70
2023/01/16 07:42:31;;;;;;;5.70;1.38;;;;;;;5.36;63.13;98219.78;4162327;28;20041;-70
2023/01/16 07:44:36;;;;;;;4.53;1.03;;;;;;;5.40;62.66;98218.06;4161657;28;20033;-70
2023/01/16 07:46:38;;;;;;;2.72;1.02;;;;;;;5.41;62.64;98223.19;4163851;28;20778;-70
2023/01/16 07:48:41;;;;;;;3.05;1.00;;;;;;;5.39;62.62;98211.22;4163200;28;20543;-70
2023/01/16 07:50:50;;;;;;;6.97;1.50;;;;;;;5.38;62.29;98206.91;4163247;28;20045;-70
2023/01/16 07:52:53;;;;;;;4.72;1.30;;;;;;;5.38;62.74;98204.31;4161082;28;20095;-70
2023/01/16 07:54:57;;;;;;;2.38;1.00;;;;;;;5.46;62.75;98205.19;4162378;28;20450;-70
2023/01/16 07:57:00;;;;;;;4.57;1.00;;;;;;;5.46;62.75;98194.88;4162047;28;20037;-70
2023/01/16 07:59:03;;;;;;;2.67;1.08;;;;;;;5.54;62.24;98192.28;4163068;28;20074;-70
2023/01/16 08:01:05;;;;;;;6.15;1.58;;;;;;;5.52;62.21;98181.09;4161506;28;20052;-70
2023/01/16 08:03:09;;;;;;;3.55;1.73;;;;;;;5.54;62.20;98187.97;4162805;28;20762;-70
2023/01/16 08:05:12;;;;;;;2.25;1.00;;;;;;;5.46;62.05;98178.53;4157280;28;20231;-70
2023/01/16 08:07:16;;;;;;;;;;;;;;;5.40;62.13;98174.25;4163877;28;20051;-70
2023/01/16 08:09:19;;;;;;;4.40;1.30;;;;;;;5.43;62.09;98174.25;4178117;28;19920;-70
2023/01/16 08:11:39;;;;;;;2.35;1.23;;;;;;;5.50;62.29;98175.94;4161991;28;20483;-70
2023/01/16 08:13:41;;;;;;;4.45;1.48;;;;;;;5.50;61.76;98169.94;4161993;28;20034;-70
2023/01/16 08:15:44;;;;;;;3.00;1.20;;;;;;;5.51;61.94;98169.94;4162868;28;20052;-71
2023/01/16 08:17:47;;;;;;;2.70;1.20;;;;;;;5.59;61.79;98175.94;4161849;28;20037;-70
2023/01/16 08:19:50;;;;;;;4.13;1.13;;;;;;;5.58;61.10;98169.06;4159880;28;20586;-70
2023/01/16 08:21:53;;;;;;;2.90;1.48;;;;;;;5.64;60.85;98159.59;4162784;28;20041;-70
2023/01/16 08:23:56;;;;;;;3.80;1.05;;;;;;;5.55;61.42;98147.63;4161922;28;20076;-70
2023/01/16 08:26:00;;;;;;;5.00;1.17;;;;;;;5.58;61.40;98140.72;4162810;28;20044;-70
2023/01/16 08:28:05;;;;;;;7.20;1.38;;;;;;;5.59;61.43;98134.69;4161614;28;20049;-70
2023/01/16 08:30:08;;;;;;;;;;;;;;;5.53;60.52;98126.13;4158105;28;20042;-70
2023/01/16 08:32:11;;;;;;;4.25;1.20;;;;;;;5.57;60.63;98127.84;4177461;28;20406;-70
2023/01/16 08:34:14;;;;;;;3.58;1.48;;;;;;;5.67;60.26;98126.09;4162557;28;20064;-70
2023/01/16 08:36:20;;;;;;;3.35;1.40;;;;;;;5.67;60.79;98126.09;4142936;28;20047;-69
2023/01/16 08:38:23;;;;;;;6.30;1.90;;;;;;;5.72;61.27;98129.50;4162451;28;20069;-69
2023/01/16 08:40:26;;;;;;;7.18;1.85;;;;;;;5.71;61.07;98117.44;4162481;28;20037;-69
2023/01/16 08:51:53;;;;;;;7.93;1.58;;;;;;;5.54;63.78;98107.22;4161971;28;20044;-69
2023/01/16 08:53:57;;;;;;;6.90;1.63;;;;;;;5.64;63.79;98102.91;4161681;28;20037;-69
2023/01/16 08:56:00;;;;;;;4.82;1.33;;;;;;;5.49;64.17;98114.09;4163154;28;20041;-69
2023/01/16 08:58:03;;;;;;;2.20;1.27;;;;;;;5.48;64.91;98115.84;4162455;28;20443;-69
2023/01/16 09:00:09;;;;;;;2.50;1.10;;;;;;;5.53;65.21;98114.09;4162025;28;20526;-69
2023/01/16 09:02:14;;;;;;;1.65;0.80;;;;;;;5.51;65.88;98108.09;4160786;28;20041;-69
2023/01/16 09:04:17;;;;;;;;;;;;;;;5.48;66.42;98115.84;4159829;28;20466;-70
2023/01/16 09:06:19;;;;;;;4.47;1.20;;;;;;;5.56;67.01;98098.63;4157179;28;20275;-71
2023/01/16 09:08:22;;;;;;;3.47;1.02;;;;;;;5.57;67.02;98091.75;4161827;28;20061;-70
2023/01/16 09:10:25;;;;;;;2.45;1.00;;;;;;;5.75;66.10;98093.38;4158596;28;20033;-70
2023/01/16 09:14:48;;;;;;;2.55;1.20;;;;;;;5.81;66.65;98100.22;4161121;28;20034;-69
2023/01/16 09:16:52;;;;;;;3.45;1.05;;;;;;;5.73;66.24;98092.53;4155920;28;20034;-68
2023/01/16 09:18:55;;;;;;;4.00;1.30;;;;;;;5.62;67.06;98086.56;4162179;28;20041;-70
2023/01/16 09:20:58;;;;;;;1.77;0.88;;;;;;;5.68;67.53;98082.25;4162674;28;20049;-68
2023/01/16 09:23:03;;;;;;;2.95;0.90;;;;;;;5.72;67.35;98093.41;4161663;28;20055;-68
2023/01/16 09:25:06;;;;;;;3.10;0.90;;;;;;;5.63;67.86;98083.13;4161239;28;20033;-68
2023/01/16 09:27:09;;;;;;;2.92;1.20;;;;;;;5.70;67.17;98069.38;4161616;28;20124;-69
2023/01/16 09:29:12;;;;;;;3.78;1.10;;;;;;;5.71;66.48;98076.22;4160759;28;20041;-71
2023/01/16 09:31:16;;;;;;;5.20;1.00;;;;;;;5.66;67.16;98063.34;4161754;28;20075;-68
2023/01/16 09:33:20;;;;;;;7.43;2.10;;;;;;;5.66;67.62;98057.34;4160015;28;20044;-68
2023/01/16 09:35:23;;;;;;;4.00;1.05;;;;;;;5.68;68.12;98058.19;4177769;28;20029;-69
2023/01/16 09:37:26;;;;;;;2.72;0.95;;;;;;;5.69;67.88;98037.56;4161357;28;20604;-70
2023/01/16 09:39:29;;;;;;;1.20;0.77;;;;;;;5.66;68.33;98035.00;4161787;28;20049;-70
2023/01/16 09:44:04;;;;;;;2.40;1.08;;;;;;;5.66;68.93;98034.16;4161464;28;20037;-70
2023/01/16 09:46:09;;;;;;;;;;;;;;;5.66;68.35;98016.94;4161044;28;20107;-69
2023/01/16 09:48:19;;;;;;;1.98;0.82;;;;;;;5.66;68.77;98026.41;4163190;28;20367;-69
2023/01/16 09:50:33;;;;;;;2.97;0.90;;;;;;;5.69;68.67;98023.81;4163899;28;20042;-69
2023/01/16 09:59:52;;;;;;;2.78;1.33;;;;;;;5.73;68.16;98018.63;4170993;28;20041;-69
2023/01/16 10:02:00;;;;;;;4.45;1.50;;;;;;;5.81;67.91;98010.88;4162329;28;20053;-69
2023/01/16 10:04:14;;;;;;;2.70;1.10;;;;;;;5.81;68.35;98016.03;4163789;28;20547;-69
2023/01/16 10:06:28;;;;;;;2.15;1.30;;;;;;;5.84;68.75;98020.28;4160450;28;20059;-69
2023/01/16 10:08:37;;;;;;;2.40;1.15;;;;;;;5.95;68.28;98011.59;4160761;28;20344;-69
2023/01/16 10:10:45;;;;;;;1.73;0.98;;;;;;;6.14;68.08;98011.53;4164673;28;20495;-69
2023/01/16 10:13:02;;;;;;;3.28;1.10;;;;;;;6.00;67.81;98013.34;4163694;28;20041;-69
2023/01/16 10:15:15;;;;;;;3.50;1.33;;;;;;;5.93;67.96;98009.94;4172663;28;20609;-69
2023/01/16 10:17:26;;;;;;;4.47;1.50;;;;;;;5.97;68.40;98008.19;4160366;28;20034;-70
2023/01/16 10:19:47;;;;;;;3.08;1.42;;;;;;;5.86;68.60;98014.25;4162248;28;20041;-70
2023/01/16 10:22:05;;;;;;;4.65;1.50;;;;;;;5.81;69.12;98013.44;4157808;28;20537;-70
2023/01/16 10:24:16;;;;;;;5.95;3.33;;;;;;;5.92;68.40;98008.22;4162300;28;20046;-70
2023/01/16 10:26:28;;;;;;;3.75;1.50;;;;;;;5.89;67.72;98003.94;4179470;28;20053;-70
2023/01/16 10:28:47;;;;;;;3.67;1.42;;;;;;;5.88;67.98;97999.63;4164285;28;20045;-70
2023/01/16 10:30:54;;;;;;;5.60;1.35;;;;;;;5.79;68.53;97991.13;4159856;28;20123;-69
2023/01/16 10:33:06;;;;;;;2.28;1.08;;;;;;;5.75;68.90;97980.81;4163229;28;20038;-69
2023/01/16 10:35:15;;;;;;;3.45;1.13;;;;;;;5.70;69.28;97976.56;4163763;28;20037;-70